sensor_id;sensor_type;location;lat;lon;timestamp;temperature;humidity
2651;DHT22;1335;48.180;16.342;2022-07-17T00:02:16;18.90;99.90
2651;DHT22;1335;48.180;16.342;2022-07-17T00:04:43;18.60;99.90
2651;DHT22;1335;48.180;16.342;2022-07-17T00:07:11;18.60;99.90
2651;DHT22;1335;48.180;16.342;2022-07-17T00:09:38;18.20;99.90
2651;DHT22;1335;48.180;16.342;2022-07-17T00:12:05;18.70;99.90
2651;DHT22;1335;48.180;16.342;2022-07-17T00:14:33;18.20;99.90
2651;DHT22;1335;48.180;16.342;2022-07-17T00:17:00;17.70;99.90
2651;DHT22;1335;48.180;16.342;2022-07-17T00:19:27;18.00;99.90
2651;DHT22;1335;48.180;16.342;2022-07-17T00:21:54;18.10;99.90
2651;DHT22;1335;48.180;16.342;2022-07-17T00:24:23;18.90;99.90
2651;DHT22;1335;48.180;16.342;2022-07-17T00:26:51;18.40;99.90
2651;DHT22;1335;48.180;16.342;2022-07-17T00:29:19;18.50;99.90
2651;DHT22;1335;48.180;16.342;2022-07-17T00:31:46;18.40;99.90
2651;DHT22;1335;48.180;16.342;2022-07-17T00:34:14;18.10;99.90
2651;DHT22;1335;48.180;16.342;2022-07-17T00:36:41;18.10;99.90
2651;DHT22;1335;48.180;16.342;2022-07-17T00:39:09;18.50;99.90
2651;DHT22;1335;48.180;16.342;2022-07-17T00:41:37;18.70;99.90
2651;DHT22;1335;48.180;16.342;2022-07-17T00:44:05;19.10;99.90
2651;DHT22;1335;48.180;16.342;2022-07-17T00:46:33;18.40;99.90
2651;DHT22;1335;48.180;16.342;2022-07-17T00:49:00;17.90;99.90
2651;DHT22;1335;48.180;16.342;2022-07-17T00:51:28;18.10;99.90
2651;DHT22;1335;48.180;16.342;2022-07-17T00:53:57;18.40;99.90
2651;DHT22;1335;48.180;16.342;2022-07-17T00:56:25;18.20;99.90
2651;DHT22;1335;48.180;16.342;2022-07-17T00:58:55;18.20;99.90
2651;DHT22;1335;48.180;16.342;2022-07-17T01:01:22;18.10;99.90
2651;DHT22;1335;48.180;16.342;2022-07-17T01:03:50;17.70;99.90
2651;DHT22;1335;48.180;16.342;2022-07-17T01:06:17;18.00;99.90
2651;DHT22;1335;48.180;16.342;2022-07-17T01:08:45;17.40;99.90
2651;DHT22;1335;48.180;16.342;2022-07-17T01:11:12;17.50;99.90
2651;DHT22;1335;48.180;16.342;2022-07-17T01:13:39;17.70;99.90
2651;DHT22;1335;48.180;16.342;2022-07-17T01:16:08;17.80;99.90
2651;DHT22;1335;48.180;16.342;2022-07-17T01:18:35;17.80;99.90
2651;DHT22;1335;48.180;16.342;2022-07-17T01:21:05;17.60;99.90
2651;DHT22;1335;48.180;16.342;2022-07-17T01:23:32;16.60;99.90
2651;DHT22;1335;48.180;16.342;2022-07-17T01:25:59;17.60;99.90
2651;DHT22;1335;48.180;16.342;2022-07-17T01:28:27;17.20;99.90
2651;DHT22;1335;48.180;16.342;2022-07-17T01:30:56;17.10;99.90
2651;DHT22;1335;48.180;16.342;2022-07-17T01:33:23;17.60;99.90
2651;DHT22;1335;48.180;16.342;2022-07-17T01:35:50;17.30;99.90
2651;DHT22;1335;48.180;16.342;2022-07-17T01:38:19;17.30;99.90
2651;DHT22;1335;48.180;16.342;2022-07-17T01:40:46;17.50;99.90
2651;DHT22;1335;48.180;16.342;2022-07-17T01:43:13;17.40;99.90
2651;DHT22;1335;48.180;16.342;2022-07-17T01:45:40;17.10;99.90
2651;DHT22;1335;48.180;16.342;2022-07-17T01:48:07;17.20;99.90
2651;DHT22;1335;48.180;16.342;2022-07-17T01:50:35;17.20;99.90
2651;DHT22;1335;48.180;16.342;2022-07-17T01:53:02;17.10;99.90
2651;DHT22;1335;48.180;16.342;2022-07-17T01:55:30;17.60;99.90
2651;DHT22;1335;48.180;16.342;2022-07-17T01:57:58;16.80;99.90
2651;DHT22;1335;48.180;16.342;2022-07-17T02:00:25;15.90;99.90
2651;DHT22;1335;48.180;16.342;2022-07-17T02:02:52;16.60;99.90
2651;DHT22;1335;48.180;16.342;2022-07-17T02:05:19;16.70;99.90
2651;DHT22;1335;48.180;16.342;2022-07-17T02:07:46;16.70;99.90
2651;DHT22;1335;48.180;16.342;2022-07-17T02:10:14;17.00;99.90
2651;DHT22;1335;48.180;16.342;2022-07-17T02:12:43;16.70;99.90
2651;DHT22;1335;48.180;16.342;2022-07-17T02:15:10;16.50;99.90
2651;DHT22;1335;48.180;16.342;2022-07-17T02:17:38;16.80;99.90
2651;DHT22;1335;48.180;16.342;2022-07-17T02:20:06;16.40;99.90
2651;DHT22;1335;48.180;16.342;2022-07-17T02:22:34;17.10;99.90
2651;DHT22;1335;48.180;16.342;2022-07-17T02:25:01;16.20;99.90
2651;DHT22;1335;48.180;16.342;2022-07-17T02:27:31;16.50;99.90
2651;DHT22;1335;48.180;16.342;2022-07-17T02:30:01;16.40;99.90
2651;DHT22;1335;48.180;16.342;2022-07-17T02:32:28;16.20;99.90
2651;DHT22;1335;48.180;16.342;2022-07-17T02:34:55;16.00;99.90
2651;DHT22;1335;48.180;16.342;2022-07-17T02:37:22;16.10;99.90
2651;DHT22;1335;48.180;16.342;2022-07-17T02:39:49;16.40;99.90
2651;DHT22;1335;48.180;16.342;2022-07-17T02:42:20;15.70;99.90
2651;DHT22;1335;48.180;16.342;2022-07-17T02:44:48;15.50;99.90
2651;DHT22;1335;48.180;16.342;2022-07-17T02:47:22;16.20;99.90
2651;DHT22;1335;48.180;16.342;2022-07-17T02:49:49;15.90;99.90
2651;DHT22;1335;48.180;16.342;2022-07-17T02:52:16;16.30;99.90
2651;DHT22;1335;48.180;16.342;2022-07-17T02:54:44;15.60;99.90
2651;DHT22;1335;48.180;16.342;2022-07-17T02:57:11;16.10;99.90
2651;DHT22;1335;48.180;16.342;2022-07-17T02:59:39;16.00;99.90
2651;DHT22;1335;48.180;16.342;2022-07-17T03:02:06;15.70;99.90
2651;DHT22;1335;48.180;16.342;2022-07-17T03:04:35;16.30;99.90
2651;DHT22;1335;48.180;16.342;2022-07-17T03:07:02;15.60;99.90
2651;DHT22;1335;48.180;16.342;2022-07-17T03:09:29;16.10;99.90
2651;DHT22;1335;48.180;16.342;2022-07-17T03:11:56;15.70;99.90
2651;DHT22;1335;48.180;16.342;2022-07-17T03:14:23;15.30;99.90
2651;DHT22;1335;48.180;16.342;2022-07-17T03:16:50;15.80;99.90
2651;DHT22;1335;48.180;16.342;2022-07-17T03:19:17;15.80;99.90
2651;DHT22;1335;48.180;16.342;2022-07-17T03:21:46;15.60;99.90
2651;DHT22;1335;48.180;16.342;2022-07-17T03:24:14;15.30;99.90
2651;DHT22;1335;48.180;16.342;2022-07-17T03:26:41;15.60;99.90
2651;DHT22;1335;48.180;16.342;2022-07-17T03:29:08;15.10;99.90
2651;DHT22;1335;48.180;16.342;2022-07-17T03:31:35;14.80;99.90
2651;DHT22;1335;48.180;16.342;2022-07-17T03:34:02;15.40;99.90
2651;DHT22;1335;48.180;16.342;2022-07-17T03:36:29;14.80;99.90
2651;DHT22;1335;48.180;16.342;2022-07-17T03:38:58;15.80;99.90
2651;DHT22;1335;48.180;16.342;2022-07-17T03:41:25;15.10;99.90
2651;DHT22;1335;48.180;16.342;2022-07-17T03:43:52;15.60;99.90
2651;DHT22;1335;48.180;16.342;2022-07-17T03:46:20;15.50;99.90
2651;DHT22;1335;48.180;16.342;2022-07-17T03:48:47;15.30;99.90
2651;DHT22;1335;48.180;16.342;2022-07-17T03:51:14;15.60;99.90
2651;DHT22;1335;48.180;16.342;2022-07-17T03:53:41;15.60;99.90
2651;DHT22;1335;48.180;16.342;2022-07-17T03:56:10;15.50;99.90
2651;DHT22;1335;48.180;16.342;2022-07-17T03:58:37;15.50;99.90
2651;DHT22;1335;48.180;16.342;2022-07-17T04:01:04;15.70;99.90
2651;DHT22;1335;48.180;16.342;2022-07-17T04:03:31;14.90;99.90
2651;DHT22;1335;48.180;16.342;2022-07-17T04:05:59;15.80;99.90
2651;DHT22;1335;48.180;16.342;2022-07-17T04:08:26;16.00;99.90
2651;DHT22;1335;48.180;16.342;2022-07-17T04:10:53;15.50;99.90
2651;DHT22;1335;48.180;16.342;2022-07-17T04:13:21;15.50;99.90
2651;DHT22;1335;48.180;16.342;2022-07-17T04:15:48;16.20;99.90
2651;DHT22;1335;48.180;16.342;2022-07-17T04:18:18;15.90;99.90
2651;DHT22;1335;48.180;16.342;2022-07-17T04:20:46;15.80;99.90
2651;DHT22;1335;48.180;16.342;2022-07-17T04:23:13;16.10;99.90
2651;DHT22;1335;48.180;16.342;2022-07-17T04:25:40;15.60;99.90
2651;DHT22;1335;48.180;16.342;2022-07-17T04:28:08;16.10;99.90
2651;DHT22;1335;48.180;16.342;2022-07-17T04:30:37;16.50;99.90
2651;DHT22;1335;48.180;16.342;2022-07-17T04:33:04;17.20;99.90
2651;DHT22;1335;48.180;16.342;2022-07-17T04:35:31;16.40;99.90
2651;DHT22;1335;48.180;16.342;2022-07-17T04:37:58;17.40;99.90
2651;DHT22;1335;48.180;16.342;2022-07-17T04:40:26;17.40;99.90
2651;DHT22;1335;48.180;16.342;2022-07-17T04:42:53;18.80;99.90
2651;DHT22;1335;48.180;16.342;2022-07-17T04:45:20;20.70;99.90
2651;DHT22;1335;48.180;16.342;2022-07-17T04:47:49;21.30;99.90
2651;DHT22;1335;48.180;16.342;2022-07-17T04:50:16;22.00;99.90
2651;DHT22;1335;48.180;16.342;2022-07-17T04:52:43;22.20;99.90
2651;DHT22;1335;48.180;16.342;2022-07-17T04:55:10;23.10;99.90
2651;DHT22;1335;48.180;16.342;2022-07-17T04:57:37;23.70;99.90
2651;DHT22;1335;48.180;16.342;2022-07-17T05:00:06;24.30;99.90
2651;DHT22;1335;48.180;16.342;2022-07-17T05:02:34;25.00;99.90
2651;DHT22;1335;48.180;16.342;2022-07-17T05:05:03;24.60;99.90
2651;DHT22;1335;48.180;16.342;2022-07-17T05:07:31;25.00;99.90
2651;DHT22;1335;48.180;16.342;2022-07-17T05:09:58;25.40;99.90
2651;DHT22;1335;48.180;16.342;2022-07-17T05:12:25;25.20;99.90
2651;DHT22;1335;48.180;16.342;2022-07-17T05:14:52;25.20;99.90
2651;DHT22;1335;48.180;16.342;2022-07-17T05:17:19;25.30;99.90
2651;DHT22;1335;48.180;16.342;2022-07-17T05:19:47;25.50;99.90
2651;DHT22;1335;48.180;16.342;2022-07-17T05:22:15;26.00;99.90
2651;DHT22;1335;48.180;16.342;2022-07-17T05:24:43;27.20;99.90
2651;DHT22;1335;48.180;16.342;2022-07-17T05:27:10;26.80;99.90
2651;DHT22;1335;48.180;16.342;2022-07-17T05:29:37;27.30;99.90
2651;DHT22;1335;48.180;16.342;2022-07-17T05:32:04;27.20;99.90
2651;DHT22;1335;48.180;16.342;2022-07-17T05:34:32;27.50;99.90
2651;DHT22;1335;48.180;16.342;2022-07-17T05:36:59;28.20;99.90
2651;DHT22;1335;48.180;16.342;2022-07-17T05:39:27;28.90;99.90
2651;DHT22;1335;48.180;16.342;2022-07-17T05:41:54;28.80;99.90
2651;DHT22;1335;48.180;16.342;2022-07-17T05:44:21;29.30;99.90
2651;DHT22;1335;48.180;16.342;2022-07-17T05:46:49;29.20;99.90
2651;DHT22;1335;48.180;16.342;2022-07-17T05:49:16;30.10;99.90
2651;DHT22;1335;48.180;16.342;2022-07-17T05:51:43;30.50;99.90
2651;DHT22;1335;48.180;16.342;2022-07-17T05:54:10;31.50;99.90
2651;DHT22;1335;48.180;16.342;2022-07-17T05:56:39;32.80;99.90
2651;DHT22;1335;48.180;16.342;2022-07-17T05:59:06;32.90;99.90
2651;DHT22;1335;48.180;16.342;2022-07-17T06:01:33;34.90;99.90
2651;DHT22;1335;48.180;16.342;2022-07-17T06:04:00;36.20;99.90
2651;DHT22;1335;48.180;16.342;2022-07-17T06:06:28;37.00;99.90
2651;DHT22;1335;48.180;16.342;2022-07-17T06:08:55;37.90;99.90
2651;DHT22;1335;48.180;16.342;2022-07-17T06:11:22;38.30;99.90
2651;DHT22;1335;48.180;16.342;2022-07-17T06:13:51;39.50;99.90
2651;DHT22;1335;48.180;16.342;2022-07-17T06:16:18;39.90;99.90
2651;DHT22;1335;48.180;16.342;2022-07-17T06:18:45;41.10;99.90
2651;DHT22;1335;48.180;16.342;2022-07-17T06:21:13;40.70;99.90
2651;DHT22;1335;48.180;16.342;2022-07-17T06:23:40;41.10;99.90
2651;DHT22;1335;48.180;16.342;2022-07-17T06:26:07;41.60;99.90
2651;DHT22;1335;48.180;16.342;2022-07-17T06:28:35;41.80;99.90
2651;DHT22;1335;48.180;16.342;2022-07-17T06:31:04;42.50;99.90
2651;DHT22;1335;48.180;16.342;2022-07-17T06:33:31;42.30;99.90
2651;DHT22;1335;48.180;16.342;2022-07-17T06:35:58;41.40;99.90
2651;DHT22;1335;48.180;16.342;2022-07-17T06:38:25;41.10;99.90
2651;DHT22;1335;48.180;16.342;2022-07-17T06:40:52;41.90;99.90
2651;DHT22;1335;48.180;16.342;2022-07-17T06:43:19;42.50;99.90
2651;DHT22;1335;48.180;16.342;2022-07-17T06:45:47;43.10;99.90
2651;DHT22;1335;48.180;16.342;2022-07-17T06:48:18;41.50;99.90
2651;DHT22;1335;48.180;16.342;2022-07-17T06:50:45;36.40;99.90
2651;DHT22;1335;48.180;16.342;2022-07-17T06:53:13;36.10;99.90
2651;DHT22;1335;48.180;16.342;2022-07-17T06:55:40;39.50;99.90
2651;DHT22;1335;48.180;16.342;2022-07-17T06:58:08;41.60;99.90
2651;DHT22;1335;48.180;16.342;2022-07-17T07:00:35;43.60;99.90
2651;DHT22;1335;48.180;16.342;2022-07-17T07:03:02;43.70;99.90
2651;DHT22;1335;48.180;16.342;2022-07-17T07:05:35;43.40;99.90
2651;DHT22;1335;48.180;16.342;2022-07-17T07:08:02;44.20;99.90
2651;DHT22;1335;48.180;16.342;2022-07-17T07:10:29;44.10;99.90
2651;DHT22;1335;48.180;16.342;2022-07-17T07:12:56;44.70;99.90
2651;DHT22;1335;48.180;16.342;2022-07-17T07:15:24;44.50;99.90
2651;DHT22;1335;48.180;16.342;2022-07-17T07:17:51;43.60;99.90
2651;DHT22;1335;48.180;16.342;2022-07-17T07:20:18;38.70;99.90
2651;DHT22;1335;48.180;16.342;2022-07-17T07:22:50;39.00;99.90
2651;DHT22;1335;48.180;16.342;2022-07-17T07:25:17;41.60;99.90
2651;DHT22;1335;48.180;16.342;2022-07-17T07:27:44;44.70;99.90
2651;DHT22;1335;48.180;16.342;2022-07-17T07:30:11;45.10;99.90
2651;DHT22;1335;48.180;16.342;2022-07-17T07:32:39;45.30;99.90
2651;DHT22;1335;48.180;16.342;2022-07-17T07:35:07;45.00;99.90
2651;DHT22;1335;48.180;16.342;2022-07-17T07:37:34;44.60;99.90
2651;DHT22;1335;48.180;16.342;2022-07-17T07:40:04;36.30;99.90
2651;DHT22;1335;48.180;16.342;2022-07-17T07:42:32;42.90;99.90
2651;DHT22;1335;48.180;16.342;2022-07-17T07:44:59;45.00;99.90
2651;DHT22;1335;48.180;16.342;2022-07-17T07:47:27;45.10;99.90
2651;DHT22;1335;48.180;16.342;2022-07-17T07:49:54;45.70;99.90
2651;DHT22;1335;48.180;16.342;2022-07-17T07:52:21;46.40;99.90
2651;DHT22;1335;48.180;16.342;2022-07-17T07:54:49;46.70;99.90
2651;DHT22;1335;48.180;16.342;2022-07-17T07:57:18;36.70;99.90
2651;DHT22;1335;48.180;16.342;2022-07-17T07:59:45;42.60;99.90
2651;DHT22;1335;48.180;16.342;2022-07-17T08:02:12;45.40;99.90
2651;DHT22;1335;48.180;16.342;2022-07-17T08:04:39;46.60;99.90
2651;DHT22;1335;48.180;16.342;2022-07-17T08:07:06;47.00;99.90
2651;DHT22;1335;48.180;16.342;2022-07-17T08:09:33;47.60;99.90
2651;DHT22;1335;48.180;16.342;2022-07-17T08:12:01;47.60;99.90
2651;DHT22;1335;48.180;16.342;2022-07-17T08:14:30;40.70;99.90
2651;DHT22;1335;48.180;16.342;2022-07-17T08:16:57;42.20;99.90
2651;DHT22;1335;48.180;16.342;2022-07-17T08:19:24;44.90;99.90
2651;DHT22;1335;48.180;16.342;2022-07-17T08:21:51;45.40;99.90
2651;DHT22;1335;48.180;16.342;2022-07-17T08:24:19;46.90;99.90
2651;DHT22;1335;48.180;16.342;2022-07-17T08:26:46;46.10;99.90
2651;DHT22;1335;48.180;16.342;2022-07-17T08:29:13;47.20;99.90
2651;DHT22;1335;48.180;16.342;2022-07-17T08:31:43;47.90;99.90
2651;DHT22;1335;48.180;16.342;2022-07-17T08:34:10;47.20;99.90
2651;DHT22;1335;48.180;16.342;2022-07-17T08:36:37;48.50;99.90
2651;DHT22;1335;48.180;16.342;2022-07-17T08:39:05;46.60;99.90
2651;DHT22;1335;48.180;16.342;2022-07-17T08:41:32;46.00;99.90
2651;DHT22;1335;48.180;16.342;2022-07-17T08:44:04;45.30;99.90
2651;DHT22;1335;48.180;16.342;2022-07-17T08:46:33;45.20;99.90
2651;DHT22;1335;48.180;16.342;2022-07-17T08:49:04;43.50;99.90
2651;DHT22;1335;48.180;16.342;2022-07-17T08:51:33;38.20;99.90
2651;DHT22;1335;48.180;16.342;2022-07-17T08:54:00;43.20;99.90
2651;DHT22;1335;48.180;16.342;2022-07-17T08:56:28;42.20;99.90
2651;DHT22;1335;48.180;16.342;2022-07-17T08:58:55;39.70;99.90
2651;DHT22;1335;48.180;16.342;2022-07-17T09:01:23;43.70;99.90
2651;DHT22;1335;48.180;16.342;2022-07-17T09:03:56;43.80;99.90
2651;DHT22;1335;48.180;16.342;2022-07-17T09:06:26;43.60;99.90
2651;DHT22;1335;48.180;16.342;2022-07-17T09:09:03;40.40;99.90
2651;DHT22;1335;48.180;16.342;2022-07-17T09:11:42;44.20;99.90
2651;DHT22;1335;48.180;16.342;2022-07-17T09:14:09;42.50;99.90
2651;DHT22;1335;48.180;16.342;2022-07-17T09:16:47;43.00;99.90
2651;DHT22;1335;48.180;16.342;2022-07-17T09:19:24;37.30;99.90
2651;DHT22;1335;48.180;16.342;2022-07-17T09:22:04;37.60;99.90
2651;DHT22;1335;48.180;16.342;2022-07-17T09:24:46;42.40;99.90
2651;DHT22;1335;48.180;16.342;2022-07-17T09:27:16;45.10;99.90
2651;DHT22;1335;48.180;16.342;2022-07-17T09:29:56;42.70;99.90
2651;DHT22;1335;48.180;16.342;2022-07-17T09:32:26;45.50;99.90
2651;DHT22;1335;48.180;16.342;2022-07-17T09:34:56;44.40;99.90
2651;DHT22;1335;48.180;16.342;2022-07-17T09:37:26;46.00;99.90
2651;DHT22;1335;48.180;16.342;2022-07-17T09:39:54;43.50;99.90
2651;DHT22;1335;48.180;16.342;2022-07-17T09:42:24;38.80;99.90
2651;DHT22;1335;48.180;16.342;2022-07-17T09:44:58;40.70;99.90
2651;DHT22;1335;48.180;16.342;2022-07-17T09:47:27;43.60;99.90
2651;DHT22;1335;48.180;16.342;2022-07-17T09:49:55;45.50;99.90
2651;DHT22;1335;48.180;16.342;2022-07-17T09:52:25;44.80;99.90
2651;DHT22;1335;48.180;16.342;2022-07-17T09:54:54;45.50;99.90
2651;DHT22;1335;48.180;16.342;2022-07-17T09:57:24;44.30;99.90
2651;DHT22;1335;48.180;16.342;2022-07-17T09:59:54;45.20;99.90
2651;DHT22;1335;48.180;16.342;2022-07-17T10:02:22;45.40;99.90
2651;DHT22;1335;48.180;16.342;2022-07-17T10:04:51;43.80;99.90
2651;DHT22;1335;48.180;16.342;2022-07-17T10:07:18;37.30;99.90
2651;DHT22;1335;48.180;16.342;2022-07-17T10:09:47;36.20;99.90
2651;DHT22;1335;48.180;16.342;2022-07-17T10:12:16;40.30;99.90
2651;DHT22;1335;48.180;16.342;2022-07-17T10:14:47;41.80;99.90
2651;DHT22;1335;48.180;16.342;2022-07-17T10:17:22;42.90;99.90
2651;DHT22;1335;48.180;16.342;2022-07-17T10:19:52;42.80;99.90
2651;DHT22;1335;48.180;16.342;2022-07-17T10:22:20;42.20;99.90
2651;DHT22;1335;48.180;16.342;2022-07-17T10:24:50;41.50;99.90
2651;DHT22;1335;48.180;16.342;2022-07-17T10:27:20;40.30;99.90
2651;DHT22;1335;48.180;16.342;2022-07-17T10:29:47;42.20;99.90
2651;DHT22;1335;48.180;16.342;2022-07-17T10:32:25;39.10;99.90
2651;DHT22;1335;48.180;16.342;2022-07-17T10:34:57;40.10;99.90
2651;DHT22;1335;48.180;16.342;2022-07-17T10:37:27;41.40;99.90
2651;DHT22;1335;48.180;16.342;2022-07-17T10:39:58;41.50;99.90
2651;DHT22;1335;48.180;16.342;2022-07-17T10:42:44;42.20;99.90
2651;DHT22;1335;48.180;16.342;2022-07-17T10:45:13;38.60;99.90
2651;DHT22;1335;48.180;16.342;2022-07-17T10:47:50;41.60;99.90
2651;DHT22;1335;48.180;16.342;2022-07-17T10:50:19;42.40;99.90
2651;DHT22;1335;48.180;16.342;2022-07-17T10:53:03;42.00;99.90
2651;DHT22;1335;48.180;16.342;2022-07-17T10:55:33;41.90;99.90
2651;DHT22;1335;48.180;16.342;2022-07-17T10:58:04;41.40;99.90
2651;DHT22;1335;48.180;16.342;2022-07-17T11:00:40;42.40;99.90
2651;DHT22;1335;48.180;16.342;2022-07-17T11:03:11;40.90;99.90
2651;DHT22;1335;48.180;16.342;2022-07-17T11:05:39;41.40;99.90
2651;DHT22;1335;48.180;16.342;2022-07-17T11:08:07;39.90;99.90
2651;DHT22;1335;48.180;16.342;2022-07-17T11:10:38;39.80;99.90
2651;DHT22;1335;48.180;16.342;2022-07-17T11:13:10;40.50;99.90
2651;DHT22;1335;48.180;16.342;2022-07-17T11:15:45;40.30;99.90
2651;DHT22;1335;48.180;16.342;2022-07-17T11:18:15;39.50;99.90
2651;DHT22;1335;48.180;16.342;2022-07-17T11:20:51;38.50;99.90
2651;DHT22;1335;48.180;16.342;2022-07-17T11:23:20;39.50;99.90
2651;DHT22;1335;48.180;16.342;2022-07-17T11:25:58;39.30;99.90
2651;DHT22;1335;48.180;16.342;2022-07-17T11:28:43;39.40;99.90
2651;DHT22;1335;48.180;16.342;2022-07-17T11:31:19;38.60;99.90
2651;DHT22;1335;48.180;16.342;2022-07-17T11:33:52;38.40;99.90
2651;DHT22;1335;48.180;16.342;2022-07-17T11:36:24;37.60;99.90
2651;DHT22;1335;48.180;16.342;2022-07-17T11:38:55;38.30;99.90
2651;DHT22;1335;48.180;16.342;2022-07-17T11:41:33;38.60;99.90
2651;DHT22;1335;48.180;16.342;2022-07-17T11:44:02;37.70;99.90
2651;DHT22;1335;48.180;16.342;2022-07-17T11:46:29;36.90;99.90
2651;DHT22;1335;48.180;16.342;2022-07-17T11:48:57;34.90;99.90
2651;DHT22;1335;48.180;16.342;2022-07-17T11:51:40;34.80;99.90
2651;DHT22;1335;48.180;16.342;2022-07-17T11:54:10;34.10;99.90
2651;DHT22;1335;48.180;16.342;2022-07-17T11:56:40;31.80;99.90
2651;DHT22;1335;48.180;16.342;2022-07-17T11:59:09;33.80;99.90
2651;DHT22;1335;48.180;16.342;2022-07-17T12:01:41;34.60;99.90
2651;DHT22;1335;48.180;16.342;2022-07-17T12:04:14;33.50;99.90
2651;DHT22;1335;48.180;16.342;2022-07-17T12:06:41;33.60;99.90
2651;DHT22;1335;48.180;16.342;2022-07-17T12:09:09;33.50;99.90
2651;DHT22;1335;48.180;16.342;2022-07-17T12:11:47;33.90;99.90
2651;DHT22;1335;48.180;16.342;2022-07-17T12:14:15;34.60;99.90
2651;DHT22;1335;48.180;16.342;2022-07-17T12:16:42;34.70;99.90
2651;DHT22;1335;48.180;16.342;2022-07-17T12:19:11;33.40;99.90
2651;DHT22;1335;48.180;16.342;2022-07-17T12:21:50;33.50;99.90
2651;DHT22;1335;48.180;16.342;2022-07-17T12:24:21;33.60;99.90
2651;DHT22;1335;48.180;16.342;2022-07-17T12:26:50;32.80;99.90
2651;DHT22;1335;48.180;16.342;2022-07-17T12:29:18;32.60;99.90
2651;DHT22;1335;48.180;16.342;2022-07-17T12:31:45;32.20;99.90
2651;DHT22;1335;48.180;16.342;2022-07-17T12:34:13;32.20;99.90
2651;DHT22;1335;48.180;16.342;2022-07-17T12:36:40;32.70;99.90
2651;DHT22;1335;48.180;16.342;2022-07-17T12:39:08;32.40;99.90
2651;DHT22;1335;48.180;16.342;2022-07-17T12:41:35;32.30;99.90
2651;DHT22;1335;48.180;16.342;2022-07-17T12:44:05;32.50;99.90
2651;DHT22;1335;48.180;16.342;2022-07-17T12:46:32;31.20;99.90
2651;DHT22;1335;48.180;16.342;2022-07-17T12:48:59;32.00;99.90
2651;DHT22;1335;48.180;16.342;2022-07-17T12:51:27;30.60;99.90
2651;DHT22;1335;48.180;16.342;2022-07-17T12:53:54;29.60;99.90
2651;DHT22;1335;48.180;16.342;2022-07-17T12:56:21;30.40;99.90
2651;DHT22;1335;48.180;16.342;2022-07-17T12:58:49;30.70;99.90
2651;DHT22;1335;48.180;16.342;2022-07-17T13:01:18;30.20;99.90
2651;DHT22;1335;48.180;16.342;2022-07-17T13:03:46;30.00;99.90
2651;DHT22;1335;48.180;16.342;2022-07-17T13:06:14;29.30;99.90
2651;DHT22;1335;48.180;16.342;2022-07-17T13:08:41;29.30;99.90
2651;DHT22;1335;48.180;16.342;2022-07-17T13:11:08;29.50;99.90
2651;DHT22;1335;48.180;16.342;2022-07-17T13:13:35;29.90;99.90
2651;DHT22;1335;48.180;16.342;2022-07-17T13:16:03;29.40;99.90
2651;DHT22;1335;48.180;16.342;2022-07-17T13:18:34;29.20;99.90
2651;DHT22;1335;48.180;16.342;2022-07-17T13:21:01;29.20;99.90
2651;DHT22;1335;48.180;16.342;2022-07-17T13:23:29;28.30;99.90
2651;DHT22;1335;48.180;16.342;2022-07-17T13:25:56;28.40;99.90
2651;DHT22;1335;48.180;16.342;2022-07-17T13:28:23;28.70;99.90
2651;DHT22;1335;48.180;16.342;2022-07-17T13:30:51;28.00;99.90
2651;DHT22;1335;48.180;16.342;2022-07-17T13:33:18;28.50;99.90
2651;DHT22;1335;48.180;16.342;2022-07-17T13:35:47;28.10;99.90
2651;DHT22;1335;48.180;16.342;2022-07-17T13:38:14;27.60;99.90
2651;DHT22;1335;48.180;16.342;2022-07-17T13:40:41;28.20;99.90
2651;DHT22;1335;48.180;16.342;2022-07-17T13:43:08;27.50;99.90
2651;DHT22;1335;48.180;16.342;2022-07-17T13:45:35;27.30;99.90
2651;DHT22;1335;48.180;16.342;2022-07-17T13:48:04;26.50;99.90
2651;DHT22;1335;48.180;16.342;2022-07-17T13:50:31;27.00;99.90
2651;DHT22;1335;48.180;16.342;2022-07-17T13:52:59;27.10;99.90
2651;DHT22;1335;48.180;16.342;2022-07-17T13:55:27;27.20;99.90
2651;DHT22;1335;48.180;16.342;2022-07-17T13:57:54;26.60;99.90
2651;DHT22;1335;48.180;16.342;2022-07-17T14:00:21;26.80;99.90
2651;DHT22;1335;48.180;16.342;2022-07-17T14:02:49;26.80;99.90
2651;DHT22;1335;48.180;16.342;2022-07-17T14:05:17;27.40;99.90
2651;DHT22;1335;48.180;16.342;2022-07-17T14:07:44;27.00;99.90
2651;DHT22;1335;48.180;16.342;2022-07-17T14:10:13;26.00;99.90
2651;DHT22;1335;48.180;16.342;2022-07-17T14:12:40;26.60;99.90
2651;DHT22;1335;48.180;16.342;2022-07-17T14:15:08;26.70;99.90
2651;DHT22;1335;48.180;16.342;2022-07-17T14:17:36;27.40;99.90
2651;DHT22;1335;48.180;16.342;2022-07-17T14:20:04;26.50;99.90
2651;DHT22;1335;48.180;16.342;2022-07-17T14:22:31;26.70;99.90
2651;DHT22;1335;48.180;16.342;2022-07-17T14:24:59;27.10;99.90
2651;DHT22;1335;48.180;16.342;2022-07-17T14:27:27;26.40;99.90
2651;DHT22;1335;48.180;16.342;2022-07-17T14:29:54;26.90;99.90
2651;DHT22;1335;48.180;16.342;2022-07-17T14:32:22;26.60;99.90
2651;DHT22;1335;48.180;16.342;2022-07-17T14:34:49;26.50;99.90
2651;DHT22;1335;48.180;16.342;2022-07-17T14:37:16;27.40;99.90
2651;DHT22;1335;48.180;16.342;2022-07-17T14:39:43;26.70;99.90
2651;DHT22;1335;48.180;16.342;2022-07-17T14:42:11;26.40;99.90
2651;DHT22;1335;48.180;16.342;2022-07-17T14:44:39;26.20;99.90
2651;DHT22;1335;48.180;16.342;2022-07-17T14:47:07;27.00;99.90
2651;DHT22;1335;48.180;16.342;2022-07-17T14:49:34;26.20;99.90
2651;DHT22;1335;48.180;16.342;2022-07-17T14:52:01;26.80;99.90
2651;DHT22;1335;48.180;16.342;2022-07-17T14:54:28;26.70;99.90
2651;DHT22;1335;48.180;16.342;2022-07-17T14:56:56;26.90;99.90
2651;DHT22;1335;48.180;16.342;2022-07-17T14:59:25;26.90;99.90
2651;DHT22;1335;48.180;16.342;2022-07-17T15:01:54;26.40;99.90
2651;DHT22;1335;48.180;16.342;2022-07-17T15:04:21;27.30;99.90
2651;DHT22;1335;48.180;16.342;2022-07-17T15:06:48;27.00;99.90
2651;DHT22;1335;48.180;16.342;2022-07-17T15:09:15;27.20;99.90
2651;DHT22;1335;48.180;16.342;2022-07-17T15:11:42;27.10;99.90
2651;DHT22;1335;48.180;16.342;2022-07-17T15:14:10;26.80;99.90
2651;DHT22;1335;48.180;16.342;2022-07-17T15:16:37;27.00;99.90
2651;DHT22;1335;48.180;16.342;2022-07-17T15:19:06;26.50;99.90
2651;DHT22;1335;48.180;16.342;2022-07-17T15:21:33;26.80;99.90
2651;DHT22;1335;48.180;16.342;2022-07-17T15:24:00;27.00;99.90
2651;DHT22;1335;48.180;16.342;2022-07-17T15:26:27;26.60;99.90
2651;DHT22;1335;48.180;16.342;2022-07-17T15:28:54;27.10;99.90
2651;DHT22;1335;48.180;16.342;2022-07-17T15:31:22;27.50;99.90
2651;DHT22;1335;48.180;16.342;2022-07-17T15:33:49;26.70;99.90
2651;DHT22;1335;48.180;16.342;2022-07-17T15:36:18;27.20;99.90
2651;DHT22;1335;48.180;16.342;2022-07-17T15:38:54;27.50;99.90
2651;DHT22;1335;48.180;16.342;2022-07-17T15:41:22;26.50;99.90
2651;DHT22;1335;48.180;16.342;2022-07-17T15:43:49;26.70;99.90
2651;DHT22;1335;48.180;16.342;2022-07-17T15:46:16;26.70;99.90
2651;DHT22;1335;48.180;16.342;2022-07-17T15:48:44;27.00;99.90
2651;DHT22;1335;48.180;16.342;2022-07-17T15:51:14;27.30;99.90
2651;DHT22;1335;48.180;16.342;2022-07-17T15:53:44;26.50;99.90